Time;durP1;ratioP1;P1;durP2;ratioP2;P2;SDS_P1;SDS_P2;PMS_P1;PMS_P2;Temp;Humidity;BMP_temperature;BMP_pressure;BME280_temperature;BME280_humidity;BME280_pressure;Samples;Min_cycle;Max_cycle;Signal;HPM_P1;HPM_P2
2023/06/13 00:01:54;;;;;;;4.40;4.20;;;15.30;99.90;;;;;;5055155;28;20805;-81
2023/06/13 00:04:23;;;;;;;5.73;4.63;;;15.30;99.90;;;;;;5053984;28;20218;-82
2023/06/13 00:06:53;;;;;;;4.80;4.40;;;15.10;99.90;;;;;;5054891;28;20170;-82
2023/06/13 00:09:18;;;;;;;4.70;4.27;;;15.00;99.90;;;;;;5054445;28;20207;-82
2023/06/13 00:11:49;;;;;;;5.30;4.37;;;14.90;99.90;;;;;;5066467;28;20187;-80
2023/06/13 00:14:16;;;;;;;5.00;4.60;;;14.90;99.90;;;;;;5056602;28;20179;-81
2023/06/13 00:16:47;;;;;;;7.00;5.13;;;14.90;99.90;;;;;;5055054;28;20215;-80
2023/06/13 00:19:13;;;;;;;5.47;5.07;;;15.00;99.90;;;;;;5053876;28;20200;-79
2023/06/13 00:21:40;;;;;;;5.27;4.80;;;15.00;99.90;;;;;;5057329;28;20520;-81
2023/06/13 00:24:06;;;;;;;6.20;5.00;;;15.00;99.90;;;;;;5070890;28;20183;-81
2023/06/13 00:26:33;;;;;;;5.33;4.93;;;14.90;99.90;;;;;;5055750;28;20172;-80
2023/06/13 00:28:59;;;;;;;5.33;4.93;;;14.90;99.90;;;;;;5054879;28;20539;-80
2023/06/13 00:31:28;;;;;;;5.23;4.83;;;14.90;99.90;;;;;;5054205;28;20176;-81
2023/06/13 00:33:58;;;;;;;4.90;4.60;;;14.90;99.90;;;;;;5053679;28;20175;-81
2023/06/13 00:36:27;;;;;;;4.63;4.30;;;14.90;99.90;;;;;;5054674;28;20642;-80
2023/06/13 00:38:55;;;;;;;5.40;5.00;;;14.80;99.90;;;;;;5053332;28;20620;-81
2023/06/13 00:41:21;;;;;;;6.47;5.07;;;14.80;99.90;;;;;;5035922;28;20183;-79
2023/06/13 00:43:46;;;;;;;5.63;5.13;;;14.80;99.90;;;;;;5018907;28;20176;-79
2023/06/13 00:46:17;;;;;;;6.03;4.80;;;14.80;99.90;;;;;;5054271;28;20187;-81
2023/06/13 00:48:44;;;;;;;4.83;4.43;;;14.70;99.90;;;;;;5054632;28;20152;-82
2023/06/13 00:51:14;;;;;;;6.40;5.17;;;14.70;99.90;;;;;;5053950;28;20779;-78
2023/06/13 00:53:42;;;;;;;4.77;4.47;;;14.80;99.90;;;;;;5036373;28;20175;-81
2023/06/13 00:56:08;;;;;;;5.33;4.83;;;14.80;99.90;;;;;;5053712;28;20507;-80
2023/06/13 00:58:36;;;;;;;6.37;5.17;;;14.80;99.90;;;;;;5053427;28;20249;-79
2023/06/13 01:01:02;;;;;;;5.47;5.07;;;14.80;99.90;;;;;;5053134;28;20198;-82
2023/06/13 01:03:29;;;;;;;5.33;4.87;;;14.70;99.90;;;;;;5053698;28;20210;-80
2023/06/13 01:05:56;;;;;;;5.43;5.03;;;14.70;99.90;;;;;;5055024;28;20200;-80
2023/06/13 01:08:27;;;;;;;5.40;4.90;;;14.70;99.90;;;;;;5053669;28;20733;-80
2023/06/13 01:11:13;;;;;;;5.20;4.80;;;14.70;99.90;;;;;;5035454;28;20174;-81
2023/06/13 01:14:00;;;;;;;5.30;4.83;;;14.70;99.90;;;;;;5035598;28;20171;-81
2023/06/13 01:16:42;;;;;;;5.30;4.83;;;14.70;99.90;;;;;;5057889;28;20269;-80
2023/06/13 01:19:37;;;;;;;6.47;4.80;;;14.60;99.90;;;;;;5057972;28;20199;-80
2023/06/13 01:22:10;;;;;;;5.27;4.77;;;14.60;99.90;;;;;;5058687;28;20187;-82
2023/06/13 01:25:08;;;;;;;4.90;4.53;;;14.60;99.90;;;;;;5058047;28;20210;-80
2023/06/13 01:27:36;;;;;;;7.87;4.83;;;14.60;99.90;;;;;;5039550;28;20514;-81
2023/06/13 01:30:04;;;;;;;5.10;4.60;;;14.50;99.90;;;;;;5057309;28;20211;-80
2023/06/13 01:32:32;;;;;;;5.40;5.00;;;14.50;99.90;;;;;;5057127;28;20252;-81
2023/06/13 01:34:59;;;;;;;5.13;4.73;;;14.50;99.90;;;;;;5057953;28;20170;-81
2023/06/13 01:37:25;;;;;;;4.57;4.27;;;14.50;99.90;;;;;;5057231;28;20172;-79
2023/06/13 01:39:51;;;;;;;5.17;4.67;;;14.30;99.90;;;;;;5038627;28;20213;-80
2023/06/13 01:42:17;;;;;;;5.07;4.67;;;14.30;99.90;;;;;;5057006;28;20182;-80
2023/06/13 01:44:43;;;;;;;5.57;4.97;;;14.30;99.90;;;;;;5057164;28;20167;-79
2023/06/13 01:47:22;;;;;;;5.30;4.80;;;14.30;99.90;;;;;;5059536;28;20221;-79
2023/06/13 01:50:06;;;;;;;5.30;4.83;;;14.20;99.90;;;;;;5071043;28;20314;-80
2023/06/13 01:52:47;;;;;;;4.80;4.40;;;14.10;99.90;;;;;;5057004;28;20184;-81
2023/06/13 01:55:40;;;;;;;4.40;4.03;;;14.10;99.90;;;;;;5057551;28;20712;-80
2023/06/13 01:58:12;;;;;;;6.33;4.00;;;14.00;99.90;;;;;;5057984;28;20214;-82
2023/06/13 02:00:41;;;;;;;4.30;3.90;;;13.90;99.90;;;;;;5071468;28;20200;-80
2023/06/13 02:03:07;;;;;;;3.97;3.70;;;13.80;99.90;;;;;;5055867;28;20179;-82
2023/06/13 02:05:34;;;;;;;3.50;3.30;;;13.70;99.90;;;;;;5055805;28;20257;-80
2023/06/13 02:08:01;;;;;;;3.83;3.63;;;13.60;99.90;;;;;;5037850;28;20191;-80
2023/06/13 02:10:27;;;;;;;3.60;3.40;;;13.60;99.90;;;;;;5055681;28;20744;-80
2023/06/13 02:12:52;;;;;;;4.03;3.73;;;13.60;99.90;;;;;;5055585;28;20168;-80
2023/06/13 02:15:18;;;;;;;3.60;3.33;;;13.50;99.90;;;;;;5055697;28;20535;-80
2023/06/13 02:17:44;;;;;;;5.13;3.80;;;13.50;99.90;;;;;;5055761;28;20164;-80
2023/06/13 02:20:10;;;;;;;5.20;3.53;;;13.50;99.90;;;;;;5055440;28;20207;-81
2023/06/13 02:22:36;;;;;;;4.80;3.70;;;13.40;99.90;;;;;;5055473;28;20172;-81
2023/06/13 02:25:04;;;;;;;4.63;3.73;;;13.30;99.90;;;;;;5054959;28;20228;-81
2023/06/13 02:27:30;;;;;;;3.50;3.20;;;13.30;99.90;;;;;;5054812;28;20211;-80
2023/06/13 02:29:56;;;;;;;3.30;3.20;;;13.20;99.90;;;;;;5055780;28;20200;-80
2023/06/13 02:32:24;;;;;;;4.50;3.80;;;13.10;99.90;;;;;;5055467;28;20235;-79
2023/06/13 02:34:51;;;;;;;4.13;3.73;;;13.00;99.90;;;;;;5038187;28;20187;-80
2023/06/13 02:37:18;;;;;;;4.63;3.80;;;13.00;99.90;;;;;;5057697;28;20168;-81
2023/06/13 02:39:44;;;;;;;4.00;3.77;;;12.90;99.90;;;;;;5074467;28;20264;-79
2023/06/13 02:42:10;;;;;;;4.17;3.77;;;12.90;99.90;;;;;;5060851;28;20263;-81
2023/06/13 02:44:36;;;;;;;3.73;3.47;;;12.90;99.90;;;;;;5054963;28;20265;-81
2023/06/13 02:47:02;;;;;;;4.40;4.00;;;13.00;99.90;;;;;;5054482;28;20170;-80
2023/06/13 02:49:28;;;;;;;4.27;3.87;;;13.00;99.90;;;;;;5054729;28;20203;-82
2023/06/13 02:51:53;;;;;;;4.20;3.90;;;13.00;99.90;;;;;;5055059;28;20258;-82
2023/06/13 02:54:19;;;;;;;3.83;3.60;;;12.90;99.90;;;;;;5054822;28;20203;-81
2023/06/13 02:56:45;;;;;;;4.57;4.20;;;12.90;99.90;;;;;;5036528;28;20182;-81
2023/06/13 02:59:11;;;;;;;3.93;3.63;;;12.80;99.90;;;;;;5054259;28;20231;-81
2023/06/13 03:01:36;;;;;;;3.70;3.47;;;12.80;99.90;;;;;;5054056;28;20225;-80
2023/06/13 03:04:02;;;;;;;4.67;3.37;;;12.80;99.90;;;;;;5053977;28;20264;-80
2023/06/13 03:06:31;;;;;;;3.80;3.60;;;12.80;99.90;;;;;;5054547;28;20200;-81
2023/06/13 03:08:58;;;;;;;3.70;3.40;;;12.80;99.90;;;;;;5054190;28;20176;-81
2023/06/13 03:11:25;;;;;;;3.93;3.63;;;12.80;99.90;;;;;;5055482;28;20176;-80
2023/06/13 03:13:50;;;;;;;3.80;3.60;;;12.80;99.90;;;;;;5055195;28;20188;-80
2023/06/13 03:16:21;;;;;;;3.50;3.20;;;12.80;99.90;;;;;;5054083;28;20175;-79
2023/06/13 03:18:47;;;;;;;3.33;3.10;;;12.70;99.90;;;;;;5053973;28;20166;-80
2023/06/13 03:21:13;;;;;;;4.27;3.60;;;12.70;99.90;;;;;;5035776;28;20179;-81
2023/06/13 03:23:38;;;;;;;4.17;3.87;;;12.80;99.90;;;;;;5054121;28;20173;-80
2023/06/13 03:26:06;;;;;;;3.80;3.40;;;12.90;99.90;;;;;;5069782;28;20184;-81
2023/06/13 03:28:31;;;;;;;3.67;3.20;;;13.00;99.90;;;;;;5054813;28;20176;-81
2023/06/13 03:31:00;;;;;;;3.10;3.00;;;13.00;99.90;;;;;;5054051;28;20210;-80
2023/06/13 03:33:25;;;;;;;3.50;3.30;;;13.00;99.90;;;;;;5053771;28;20180;-81
2023/06/13 03:35:52;;;;;;;3.50;3.30;;;13.00;99.90;;;;;;5063718;28;20227;-81
2023/06/13 03:38:19;;;;;;;3.80;3.40;;;13.00;99.90;;;;;;5054060;28;20200;-80
2023/06/13 03:40:44;;;;;;;4.27;3.90;;;13.10;99.90;;;;;;5055184;28;20200;-80
2023/06/13 03:43:11;;;;;;;3.97;3.70;;;13.20;99.90;;;;;;5053287;28;20187;-80
2023/06/13 03:45:37;;;;;;;3.37;3.10;;;13.30;99.90;;;;;;5053344;28;20187;-80
2023/06/13 03:48:03;;;;;;;4.13;3.83;;;13.30;99.90;;;;;;5053452;28;20532;-80
2023/06/13 03:50:28;;;;;;;3.80;3.50;;;13.40;99.90;;;;;;5053106;28;20226;-80
2023/06/13 03:52:54;;;;;;;3.87;3.57;;;13.40;99.90;;;;;;5052960;28;20168;-79
2023/06/13 03:55:20;;;;;;;4.20;3.80;;;13.50;99.90;;;;;;5053222;28;20689;-81
2023/06/13 03:57:46;;;;;;;7.90;3.80;;;13.40;99.90;;;;;;5053428;28;20553;-81
2023/06/13 04:00:12;;;;;;;4.57;3.37;;;13.40;99.90;;;;;;5053272;28;20219;-80
2023/06/13 04:02:38;;;;;;;3.93;3.50;;;13.30;99.90;;;;;;5052708;28;20172;-80
2023/06/13 04:05:06;;;;;;;4.40;3.87;;;13.40;99.90;;;;;;5053244;28;20183;-80
2023/06/13 04:07:33;;;;;;;5.20;3.60;;;13.40;99.90;;;;;;5058061;28;20690;-81
2023/06/13 04:10:01;;;;;;;4.00;3.60;;;13.40;99.90;;;;;;5055304;28;20200;-81
2023/06/13 04:12:27;;;;;;;3.37;3.17;;;13.40;99.90;;;;;;5054592;28;20172;-80
2023/06/13 04:14:53;;;;;;;3.40;3.10;;;13.50;99.90;;;;;;5052716;28;20171;-80
2023/06/13 04:17:18;;;;;;;3.33;3.03;;;13.40;99.90;;;;;;5052690;28;20909;-81
2023/06/13 04:19:44;;;;;;;3.40;3.10;;;13.30;99.90;;;;;;5052714;28;20203;-79
2023/06/13 04:22:11;;;;;;;3.70;3.40;;;13.20;99.90;;;;;;5052384;28;20171;-80
2023/06/13 04:24:36;;;;;;;3.40;3.10;;;13.30;99.90;;;;;;5052770;28;20172;-81
2023/06/13 04:27:03;;;;;;;3.83;3.53;;;13.40;99.90;;;;;;5052829;28;20527;-79
2023/06/13 04:29:30;;;;;;;4.37;3.43;;;13.40;99.90;;;;;;5053233;28;20199;-83
2023/06/13 04:31:56;;;;;;;3.60;3.00;;;13.40;99.90;;;;;;5053151;28;20160;-81
2023/06/13 04:34:24;;;;;;;3.43;3.13;;;13.50;99.90;;;;;;5052553;28;20660;-81
2023/06/13 04:36:55;;;;;;;4.33;3.47;;;13.60;99.90;;;;;;5052914;28;20662;-81
2023/06/13 04:39:23;;;;;;;3.30;3.10;;;13.70;99.90;;;;;;5052790;28;20207;-81
2023/06/13 04:41:55;;;;;;;3.20;3.00;;;13.80;99.90;;;;;;5035295;28;20693;-80
2023/06/13 04:44:26;;;;;;;3.30;3.10;;;13.80;99.90;;;;;;5052367;28;20243;-81
2023/06/13 04:46:57;;;;;;;3.03;2.83;;;14.00;99.90;;;;;;5052662;28;20169;-80
2023/06/13 04:49:25;;;;;;;3.07;2.90;;;14.10;99.90;;;;;;5034531;28;20317;-81
2023/06/13 04:51:53;;;;;;;2.67;2.57;;;14.20;99.90;;;;;;5052602;28;20227;-81
2023/06/13 04:54:19;;;;;;;3.20;2.90;;;14.40;99.90;;;;;;5052921;28;20245;-81
2023/06/13 04:56:45;;;;;;;4.40;3.40;;;14.40;99.90;;;;;;5072509;28;20258;-80
2023/06/13 04:59:11;;;;;;;3.37;2.70;;;14.40;99.90;;;;;;5073722;28;20179;-81
2023/06/13 05:01:37;;;;;;;3.27;3.07;;;14.50;99.90;;;;;;5059831;28;20186;-81
2023/06/13 05:04:03;;;;;;;2.67;2.57;;;14.60;99.90;;;;;;5077567;28;20192;-84
2023/06/13 05:06:29;;;;;;;2.97;2.77;;;14.60;99.90;;;;;;5076603;28;20176;-80
2023/06/13 05:08:56;;;;;;;3.00;2.87;;;14.60;99.90;;;;;;5056683;28;20179;-81
2023/06/13 05:11:22;;;;;;;2.80;2.60;;;14.60;99.90;;;;;;5058499;28;20172;-80
2023/06/13 05:13:47;;;;;;;3.00;2.53;;;14.60;99.90;;;;;;5070300;28;20180;-80
2023/06/13 05:16:13;;;;;;;3.20;3.00;;;14.70;99.90;;;;;;5055212;28;20168;-80
2023/06/13 05:18:40;;;;;;;3.73;2.80;;;14.70;99.90;;;;;;5052331;28;20195;-81
2023/06/13 05:21:07;;;;;;;4.10;2.93;;;14.70;99.90;;;;;;5052678;28;20634;-80
2023/06/13 05:23:38;;;;;;;3.20;2.90;;;14.70;99.90;;;;;;5057463;28;20239;-80
2023/06/13 05:26:03;;;;;;;3.20;2.83;;;14.70;99.90;;;;;;5059189;28;20164;-81
2023/06/13 05:28:29;;;;;;;3.73;2.73;;;14.70;99.90;;;;;;5052625;28;20175;-80
2023/06/13 05:30:56;;;;;;;3.97;2.90;;;14.70;99.90;;;;;;5052620;28;20179;-79
2023/06/13 05:33:22;;;;;;;3.20;3.00;;;14.80;99.90;;;;;;5052122;28;20170;-82
2023/06/13 05:35:48;;;;;;;3.10;2.90;;;14.80;99.90;;;;;;5052731;28;20168;-82
2023/06/13 05:38:14;;;;;;;3.00;2.73;;;14.80;99.90;;;;;;5052361;28;20191;-79
2023/06/13 05:40:40;;;;;;;3.70;3.40;;;14.90;99.90;;;;;;5053259;28;20203;-84
2023/06/13 05:43:06;;;;;;;3.87;3.40;;;15.10;99.90;;;;;;5054243;28;20180;-81
2023/06/13 05:45:31;;;;;;;2.93;2.73;;;15.30;99.90;;;;;;5053340;28;20180;-80
2023/06/13 05:47:57;;;;;;;4.13;2.80;;;15.30;99.90;;;;;;5053815;28;20185;-81
2023/06/13 05:50:23;;;;;;;2.67;2.47;;;15.40;99.90;;;;;;5053105;28;20180;-81
2023/06/13 05:52:49;;;;;;;2.60;2.40;;;15.60;99.90;;;;;;5052035;28;20171;-82
2023/06/13 05:55:14;;;;;;;2.87;2.67;;;15.70;99.90;;;;;;5051947;28;20256;-82
2023/06/13 05:57:45;;;;;;;3.00;2.67;;;15.90;99.90;;;;;;5052281;28;20177;-81
2023/06/13 06:00:13;;;;;;;2.77;2.40;;;16.00;99.90;;;;;;5051726;28;20286;-81
2023/06/13 06:02:43;;;;;;;2.63;2.17;;;16.10;99.90;;;;;;5054972;28;20172;-79
2023/06/13 06:05:09;;;;;;;2.30;2.20;;;16.30;99.90;;;;;;5037291;28;20176;-80
2023/06/13 06:07:39;;;;;;;2.30;2.20;;;16.30;99.90;;;;;;5037505;28;20662;-81
2023/06/13 06:10:05;;;;;;;2.77;2.57;;;16.30;99.90;;;;;;5055467;28;20234;-81
2023/06/13 06:12:31;;;;;;;2.10;2.00;;;16.20;99.90;;;;;;5055214;28;20210;-82
2023/06/13 06:14:57;;;;;;;3.33;2.20;;;16.20;99.90;;;;;;5037324;28;20212;-80
2023/06/13 06:17:23;;;;;;;2.53;2.27;;;16.20;99.90;;;;;;5037443;28;20177;-82
2023/06/13 06:19:49;;;;;;;2.90;2.37;;;16.30;99.90;;;;;;5055710;28;20206;-80
2023/06/13 06:22:15;;;;;;;2.67;2.47;;;16.20;99.90;;;;;;5037510;28;20176;-80
2023/06/13 06:24:42;;;;;;;2.60;2.50;;;16.20;99.90;;;;;;5055552;28;20541;-80
2023/06/13 06:27:08;;;;;;;2.57;2.20;;;16.30;99.90;;;;;;5037179;28;20186;-80
2023/06/13 06:29:33;;;;;;;2.40;2.20;;;16.50;99.90;;;;;;5056181;28;20604;-83
2023/06/13 06:31:59;;;;;;;2.50;2.30;;;16.60;99.90;;;;;;5054980;28;20172;-80
2023/06/13 06:34:25;;;;;;;2.50;2.27;;;16.70;99.90;;;;;;5054454;28;20183;-82
2023/06/13 06:36:51;;;;;;;2.30;2.20;;;16.50;99.90;;;;;;5054961;28;20183;-82
2023/06/13 06:39:16;;;;;;;3.60;2.30;;;16.50;99.90;;;;;;5066337;28;20211;-83
2023/06/13 06:41:42;;;;;;;4.93;2.87;;;16.50;99.90;;;;;;5055099;28;20261;-81
2023/06/13 06:44:08;;;;;;;3.10;2.60;;;16.50;99.90;;;;;;5054630;28;20182;-80
2023/06/13 06:46:34;;;;;;;2.43;2.33;;;16.30;99.90;;;;;;5036519;28;20183;-80
2023/06/13 06:49:01;;;;;;;2.53;2.40;;;16.30;99.90;;;;;;5042170;28;20188;-81
2023/06/13 06:51:27;;;;;;;2.57;2.47;;;16.30;99.90;;;;;;5064574;28;20215;-83
2023/06/13 06:53:54;;;;;;;3.23;2.50;;;16.40;99.90;;;;;;5054529;28;20166;-80
2023/06/13 06:56:20;;;;;;;2.47;2.27;;;16.50;99.90;;;;;;5054278;28;20170;-81
2023/06/13 06:58:46;;;;;;;3.73;2.50;;;16.60;99.90;;;;;;5054127;28;20187;-81
2023/06/13 07:01:14;;;;;;;2.40;2.23;;;16.70;99.90;;;;;;5054388;28;20202;-81
2023/06/13 07:03:40;;;;;;;2.30;2.20;;;16.90;99.90;;;;;;5054238;28;20176;-79
2023/06/13 07:06:06;;;;;;;2.43;2.23;;;17.00;99.90;;;;;;5054379;28;20183;-80
2023/06/13 07:08:32;;;;;;;2.33;2.23;;;17.10;99.90;;;;;;5036494;28;20583;-83
2023/06/13 07:10:58;;;;;;;2.90;2.70;;;17.20;99.90;;;;;;5054226;28;20169;-81
2023/06/13 07:13:26;;;;;;;4.20;2.50;;;17.30;99.90;;;;;;5035420;28;20555;-79
2023/06/13 07:15:51;;;;;;;2.57;2.27;;;17.10;99.90;;;;;;5053955;28;20177;-80
2023/06/13 07:18:17;;;;;;;2.47;2.37;;;16.90;99.90;;;;;;5054226;28;20171;-80
2023/06/13 07:20:45;;;;;;;4.30;2.50;;;16.70;99.90;;;;;;5054085;28;20215;-81
2023/06/13 07:23:12;;;;;;;2.60;2.40;;;16.50;99.90;;;;;;5053637;28;20211;-80
2023/06/13 07:25:40;;;;;;;3.90;2.27;;;16.40;99.90;;;;;;5053681;28;20168;-81
2023/06/13 07:28:07;;;;;;;2.67;2.47;;;16.40;99.90;;;;;;5053735;28;20172;-82
2023/06/13 07:30:33;;;;;;;2.40;2.30;;;16.60;99.90;;;;;;5035960;28;20313;-81
2023/06/13 07:32:58;;;;;;;4.37;2.50;;;16.80;99.90;;;;;;5053981;28;20210;-82
2023/06/13 07:35:24;;;;;;;6.40;2.30;;;16.80;99.90;;;;;;5053719;28;20260;-80
2023/06/13 07:37:50;;;;;;;2.73;2.27;;;16.90;99.90;;;;;;5053587;28;20176;-81
2023/06/13 07:40:17;;;;;;;2.57;2.47;;;16.90;99.90;;;;;;5053577;28;20207;-81
2023/06/13 07:42:43;;;;;;;2.63;2.43;;;17.10;99.90;;;;;;5053846;28;20186;-80
2023/06/13 07:45:08;;;;;;;2.43;2.23;;;17.40;99.90;;;;;;5053732;28;20168;-82
2023/06/13 07:47:35;;;;;;;2.50;2.40;;;17.60;99.90;;;;;;5053128;28;20183;-80
2023/06/13 07:50:02;;;;;;;2.77;2.57;;;17.70;99.90;;;;;;5053408;28;20534;-81
2023/06/13 07:52:29;;;;;;;2.40;2.30;;;17.80;99.90;;;;;;5053001;28;20713;-81
2023/06/13 07:54:55;;;;;;;2.47;2.37;;;17.50;99.90;;;;;;5035292;28;20182;-81
2023/06/13 07:57:21;;;;;;;2.87;2.67;;;17.60;99.90;;;;;;5035358;28;20546;-81
2023/06/13 07:59:46;;;;;;;2.57;2.43;;;17.70;99.90;;;;;;5053650;28;20200;-81
2023/06/13 08:02:12;;;;;;;2.57;2.47;;;17.50;99.90;;;;;;5035271;28;20221;-80
2023/06/13 08:04:38;;;;;;;3.20;3.00;;;17.60;99.90;;;;;;5053250;28;20263;-82
2023/06/13 08:07:04;;;;;;;2.60;2.40;;;17.70;99.90;;;;;;5053184;28;20186;-81
2023/06/13 08:09:30;;;;;;;3.03;2.33;;;18.00;99.90;;;;;;5053406;28;20211;-81
2023/06/13 08:11:58;;;;;;;3.40;2.30;;;18.20;99.90;;;;;;5053067;28;20210;-80
2023/06/13 08:14:24;;;;;;;2.63;2.43;;;18.10;99.90;;;;;;5057269;28;20179;-82
2023/06/13 08:16:50;;;;;;;2.40;2.30;;;18.20;99.90;;;;;;5060230;28;20172;-83
2023/06/13 08:19:16;;;;;;;2.80;2.60;;;18.10;99.90;;;;;;5055319;28;20256;-82
2023/06/13 08:21:42;;;;;;;4.20;2.50;;;18.20;99.90;;;;;;5053395;28;20183;-82
2023/06/13 08:24:08;;;;;;;2.83;2.57;;;18.50;99.90;;;;;;5053295;28;20314;-82
2023/06/13 08:26:33;;;;;;;2.63;2.47;;;18.70;99.90;;;;;;5060146;28;20176;-82
2023/06/13 08:29:01;;;;;;;2.57;2.47;;;18.60;99.90;;;;;;5064250;28;20179;-81
2023/06/13 08:31:27;;;;;;;2.57;2.47;;;18.90;99.90;;;;;;5057208;28;20192;-81
2023/06/13 08:33:57;;;;;;;2.60;2.50;;;19.00;99.90;;;;;;5053586;28;20254;-83
2023/06/13 08:36:22;;;;;;;3.07;2.77;;;19.20;99.90;;;;;;5034673;28;20271;-81
2023/06/13 08:38:48;;;;;;;3.37;2.57;;;19.30;99.90;;;;;;5052926;28;20259;-83
2023/06/13 08:41:15;;;;;;;2.50;2.40;;;19.20;99.90;;;;;;5054515;28;20263;-82
2023/06/13 08:43:42;;;;;;;3.07;2.87;;;19.50;99.90;;;;;;5052572;28;20218;-81
2023/06/13 08:46:08;;;;;;;3.00;2.70;;;19.50;99.90;;;;;;5034480;28;20176;-83
2023/06/13 08:48:34;;;;;;;3.40;2.80;;;19.50;99.90;;;;;;5052238;28;20520;-82
2023/06/13 08:51:00;;;;;;;2.80;2.70;;;19.10;99.90;;;;;;5052369;28;20582;-82
2023/06/13 08:53:29;;;;;;;4.70;2.73;;;18.60;99.90;;;;;;5052443;28;20229;-83
2023/06/13 08:55:57;;;;;;;2.87;2.67;;;18.60;99.90;;;;;;5052449;28;20176;-80
2023/06/13 08:58:27;;;;;;;2.87;2.67;;;18.50;99.90;;;;;;5034347;28;21020;-81
2023/06/13 09:00:53;;;;;;;2.90;2.70;;;18.60;99.90;;;;;;5052228;28;21063;-81
2023/06/13 09:03:20;;;;;;;4.17;3.17;;;18.90;99.90;;;;;;5034424;28;20592;-81
2023/06/13 09:05:47;;;;;;;3.20;3.00;;;19.20;99.90;;;;;;5052613;28;20180;-81
2023/06/13 09:08:14;;;;;;;3.10;2.90;;;19.40;99.90;;;;;;5052450;28;20203;-81
2023/06/13 09:10:41;;;;;;;3.10;2.83;;;19.50;99.90;;;;;;5052549;28;20183;-81
2023/06/13 09:13:08;;;;;;;2.93;2.70;;;19.70;99.90;;;;;;5052153;28;20255;-82
2023/06/13 09:15:35;;;;;;;4.70;3.10;;;19.90;99.90;;;;;;5052039;28;20180;-81
2023/06/13 09:18:01;;;;;;;2.60;2.50;;;20.00;99.90;;;;;;5051690;28;20172;-82
2023/06/13 09:20:28;;;;;;;3.17;2.97;;;20.30;99.90;;;;;;5051883;28;20214;-81
2023/06/13 09:22:55;;;;;;;2.90;2.80;;;20.20;99.90;;;;;;5052093;28;20264;-80
2023/06/13 09:25:21;;;;;;;2.90;2.60;;;20.50;99.70;;;;;;5052034;28;20205;-82
2023/06/13 09:27:47;;;;;;;2.60;2.50;;;20.70;99.80;;;;;;5052155;28;20183;-82
2023/06/13 09:30:16;;;;;;;3.87;3.10;;;20.70;98.70;;;;;;5051874;28;20175;-82
2023/06/13 09:32:53;;;;;;;3.00;2.80;;;20.60;97.50;;;;;;5052024;28;20183;-80
2023/06/13 09:35:19;;;;;;;3.00;2.90;;;20.40;97.90;;;;;;5053712;28;20313;-81
2023/06/13 09:37:46;;;;;;;2.77;2.57;;;19.90;98.60;;;;;;5037932;28;20184;-81
2023/06/13 09:40:12;;;;;;;2.97;2.77;;;19.80;99.00;;;;;;5055954;28;20258;-82
2023/06/13 09:42:38;;;;;;;2.70;2.60;;;20.00;99.80;;;;;;5056021;28;20174;-81
2023/06/13 09:45:08;;;;;;;3.13;2.80;;;20.30;99.60;;;;;;5056283;28;20168;-81
2023/06/13 09:47:34;;;;;;;3.03;2.83;;;20.60;98.60;;;;;;5055869;28;20167;-81
2023/06/13 09:50:02;;;;;;;2.80;2.67;;;20.60;98.70;;;;;;5037925;28;20214;-80
2023/06/13 09:52:30;;;;;;;3.20;3.00;;;20.60;98.80;;;;;;5043176;28;20250;-80
2023/06/13 09:54:56;;;;;;;3.27;3.07;;;20.50;98.20;;;;;;5062163;28;20639;-81
2023/06/13 09:57:23;;;;;;;3.10;2.90;;;20.30;98.40;;;;;;5057556;28;20182;-81
2023/06/13 09:59:51;;;;;;;3.30;3.10;;;20.10;97.90;;;;;;5055574;28;20208;-82
2023/06/13 10:02:19;;;;;;;4.40;2.73;;;19.90;98.60;;;;;;5056118;28;20171;-81
2023/06/13 10:04:49;;;;;;;4.00;2.80;;;20.00;98.60;;;;;;5068898;28;20642;-81
2023/06/13 10:07:16;;;;;;;3.00;2.80;;;20.10;99.00;;;;;;5040433;28;20297;-80
2023/06/13 10:09:43;;;;;;;2.90;2.80;;;20.10;97.90;;;;;;5037522;28;20210;-80
2023/06/13 10:12:14;;;;;;;3.73;3.07;;;20.00;98.40;;;;;;5055132;28;20168;-81
2023/06/13 10:14:41;;;;;;;2.97;2.87;;;20.00;98.40;;;;;;5055558;28;20168;-84
2023/06/13 10:17:11;;;;;;;4.27;2.83;;;19.90;98.50;;;;;;5055451;28;20164;-82
2023/06/13 10:19:39;;;;;;;2.83;2.60;;;20.10;98.60;;;;;;5055242;28;20254;-81
2023/06/13 10:22:07;;;;;;;3.37;3.10;;;20.00;98.40;;;;;;5055315;28;20635;-81
2023/06/13 10:24:38;;;;;;;3.57;3.37;;;20.00;98.50;;;;;;5055535;28;20174;-82
2023/06/13 10:27:06;;;;;;;3.07;2.77;;;20.00;98.10;;;;;;5055649;28;20213;-82
2023/06/13 10:29:57;;;;;;;3.50;3.20;;;20.20;98.20;;;;;;5037342;28;20572;-83
2023/06/13 10:32:40;;;;;;;2.77;2.67;;;20.40;98.20;;;;;;5055406;28;20160;-83
2023/06/13 10:35:22;;;;;;;3.00;2.80;;;20.50;98.00;;;;;;5055396;28;20164;-84
2023/06/13 10:38:15;;;;;;;4.10;2.97;;;20.50;98.00;;;;;;5055088;28;20160;-83
2023/06/13 10:40:51;;;;;;;3.23;2.93;;;20.50;98.10;;;;;;5055083;28;20208;-81
2023/06/13 10:43:25;;;;;;;3.47;3.17;;;20.20;98.00;;;;;;5036777;28;20254;-82
2023/06/13 10:45:53;;;;;;;3.17;2.97;;;20.30;99.10;;;;;;5055004;28;20654;-81
2023/06/13 10:48:54;;;;;;;2.63;2.53;;;20.40;98.70;;;;;;5054395;28;20298;-81
2023/06/13 10:51:22;;;;;;;3.23;3.03;;;20.60;98.00;;;;;;4973844;28;20245;-82
2023/06/13 10:54:17;;;;;;;4.60;3.00;;;20.60;98.60;;;;;;4974147;28;20182;-81
2023/06/13 10:56:44;;;;;;;3.17;3.00;;;20.80;97.70;;;;;;4961689;28;20228;-82
2023/06/13 10:59:16;;;;;;;3.10;2.83;;;20.70;97.80;;;;;;4973560;28;20625;-82
2023/06/13 11:01:43;;;;;;;3.00;2.70;;;20.70;97.70;;;;;;4974655;28;20210;-83
2023/06/13 11:04:12;;;;;;;2.97;2.70;;;20.70;98.00;;;;;;4974000;28;20175;-82
2023/06/13 11:06:46;;;;;;;2.50;2.40;;;20.70;98.10;;;;;;4974529;28;20661;-83
2023/06/13 11:09:19;;;;;;;3.00;2.70;;;20.70;97.80;;;;;;4974940;28;20254;-83
2023/06/13 11:11:48;;;;;;;3.47;3.17;;;20.90;98.00;;;;;;4990016;28;20255;-82
2023/06/13 11:14:19;;;;;;;2.93;2.83;;;21.20;98.80;;;;;;4986495;28;20251;-81
2023/06/13 11:16:46;;;;;;;3.10;2.90;;;21.30;99.10;;;;;;4996829;28;20155;-81
2023/06/13 11:19:13;;;;;;;3.13;2.93;;;21.40;98.10;;;;;;4988129;28;20199;-81
2023/06/13 11:21:49;;;;;;;4.47;2.83;;;21.60;97.70;;;;;;4978505;28;20213;-80
2023/06/13 11:24:15;;;;;;;3.10;2.90;;;21.60;98.20;;;;;;4978511;28;20201;-82
2023/06/13 11:26:45;;;;;;;3.20;2.90;;;21.80;97.70;;;;;;5007543;28;20568;-80
2023/06/13 11:29:12;;;;;;;3.43;3.13;;;21.50;96.40;;;;;;5039568;28;20206;-82
2023/06/13 11:31:39;;;;;;;3.33;3.13;;;21.40;96.80;;;;;;5040322;28;20175;-81
2023/06/13 11:34:13;;;;;;;7.37;5.07;;;21.10;97.00;;;;;;5034312;28;20169;-81
2023/06/13 11:36:42;;;;;;;3.77;3.47;;;21.00;97.00;;;;;;5034354;28;20168;-82
2023/06/13 11:39:12;;;;;;;3.73;3.23;;;21.10;97.20;;;;;;5034035;28;20211;-82
2023/06/13 11:41:39;;;;;;;2.97;2.77;;;21.10;97.00;;;;;;5043648;28;20199;-82
2023/06/13 11:44:06;;;;;;;2.80;2.60;;;21.10;97.10;;;;;;5038969;28;20176;-81
2023/06/13 11:46:32;;;;;;;3.50;3.30;;;21.20;96.80;;;;;;5034225;28;20234;-82
2023/06/13 11:48:58;;;;;;;3.60;3.00;;;21.10;96.80;;;;;;5033773;28;20650;-81
2023/06/13 11:51:28;;;;;;;2.70;2.60;;;21.00;97.00;;;;;;5044242;28;20216;-81
2023/06/13 11:53:57;;;;;;;3.13;2.87;;;21.10;97.20;;;;;;5036501;28;20175;-81
2023/06/13 11:56:25;;;;;;;2.80;2.67;;;21.10;96.70;;;;;;5055376;28;20631;-82
2023/06/13 11:58:52;;;;;;;3.37;3.17;;;21.20;96.50;;;;;;5034811;28;20172;-82
2023/06/13 12:01:21;;;;;;;3.13;2.93;;;21.20;96.50;;;;;;5053121;28;20543;-80
2023/06/13 12:03:47;;;;;;;2.90;2.70;;;21.10;96.30;;;;;;5052921;28;20212;-83
2023/06/13 12:06:14;;;;;;;3.03;2.83;;;21.10;96.60;;;;;;5053990;28;20176;-82
2023/06/13 12:08:42;;;;;;;2.90;2.70;;;21.00;97.00;;;;;;5053125;28;20627;-81
2023/06/13 12:11:16;;;;;;;2.77;2.60;;;21.00;97.50;;;;;;5034851;28;20512;-81
2023/06/13 12:13:55;;;;;;;2.60;2.50;;;21.20;97.30;;;;;;5057818;28;20178;-81
2023/06/13 12:16:23;;;;;;;3.07;2.80;;;21.50;96.40;;;;;;5053107;28;20160;-81
2023/06/13 12:18:56;;;;;;;3.20;3.00;;;21.50;95.70;;;;;;5052990;28;20163;-80
2023/06/13 12:21:32;;;;;;;3.23;2.90;;;21.50;95.70;;;;;;5052658;28;20275;-80
2023/06/13 12:24:01;;;;;;;2.80;2.70;;;21.60;96.10;;;;;;5055438;28;20522;-81
2023/06/13 12:26:28;;;;;;;3.33;3.03;;;21.60;95.70;;;;;;5052805;28;20180;-81
2023/06/13 12:28:59;;;;;;;2.73;2.60;;;21.60;95.00;;;;;;5053020;28;20203;-80
2023/06/13 12:31:34;;;;;;;5.67;3.03;;;21.40;94.80;;;;;;5053215;28;20160;-79
2023/06/13 12:34:09;;;;;;;3.00;2.80;;;21.20;95.90;;;;;;5053380;28;20174;-82
2023/06/13 12:36:41;;;;;;;3.07;2.80;;;21.30;95.80;;;;;;5053377;28;20183;-82
2023/06/13 12:39:09;;;;;;;2.70;2.60;;;21.50;95.70;;;;;;5052260;28;20172;-82
2023/06/13 12:41:37;;;;;;;3.40;2.90;;;21.60;95.40;;;;;;5052861;28;20168;-83
2023/06/13 12:44:02;;;;;;;3.20;3.00;;;21.80;95.20;;;;;;5053475;28;20167;-82
2023/06/13 12:46:28;;;;;;;4.03;3.73;;;21.90;95.50;;;;;;5053153;28;20175;-81
2023/06/13 12:48:55;;;;;;;3.20;3.00;;;22.10;95.40;;;;;;5034914;28;20282;-83
2023/06/13 12:51:30;;;;;;;3.13;2.90;;;22.20;95.20;;;;;;5051938;28;20310;-82
2023/06/13 12:54:10;;;;;;;2.93;2.70;;;22.20;94.70;;;;;;5052285;28;20199;-80